Time,TemperatureF,DewpointF,PressureIn,WindDirection,WindDirectionDegrees,WindSpeedMPH,WindSpeedGustMPH,Humidity,HourlyPrecipIn,Conditions,Clouds,dailyrainin,SoftwareType,DateUTC
2013-06-19 00:00:00,55.4,51.6,29.95,WSW,240,0.0,0.0,87,0.00,RA,RA,0.00,WeatherDisplay:10.37,2013-06-19 04:00:00,
2013-06-19 00:10:00,55.6,51.5,29.95,SSW,202,0.0,0.0,86,0.00,,,0.00,WeatherDisplay:10.37,2013-06-19 04:10:00,
2013-06-19 00:20:00,55.6,51.5,29.94,SSW,195,0.0,0.0,86,0.00,,,0.00,WeatherDisplay:10.37,2013-06-19 04:20:00,
2013-06-19 00:30:00,55.6,51.5,29.94,SW,221,0.0,0.0,86,0.00,,,0.00,WeatherDisplay:10.37,2013-06-19 04:30:00,
2013-06-19 00:40:00,55.6,51.5,29.94,SW,217,2.0,0.0,86,0.00,,,0.00,WeatherDisplay:10.37,2013-06-19 04:40:00,
2013-06-19 00:50:00,55.4,51.3,29.94,West,273,0.0,0.0,86,0.00,,,0.00,WeatherDisplay:10.37,2013-06-19 04:50:00,
2013-06-19 01:00:00,55.4,51.3,29.94,West,262,0.0,0.0,86,0.00,,,0.00,WeatherDisplay:10.37,2013-06-19 05:00:00,
2013-06-19 01:10:00,55.0,50.9,29.94,WSW,252,1.0,0.0,86,0.00,,,0.00,WeatherDisplay:10.37,2013-06-19 05:10:00,
2013-06-19 01:20:00,54.9,50.8,29.94,WSW,242,0.0,0.0,86,0.00,,,0.00,WeatherDisplay:10.37,2013-06-19 05:20:00,
2013-06-19 01:30:00,54.6,50.5,29.94,SW,231,0.0,0.0,86,0.00,,,0.00,WeatherDisplay:10.37,2013-06-19 05:30:00,
2013-06-19 01:40:00,54.0,50.2,29.94,SW,228,0.0,0.0,87,0.00,,,0.00,WeatherDisplay:10.37,2013-06-19 05:40:00,
2013-06-19 01:50:00,53.8,50.0,29.94,WSW,240,0.0,0.0,87,0.00,,,0.00,WeatherDisplay:10.37,2013-06-19 05:50:00,
2013-06-19 02:00:00,53.6,49.8,29.94,WSW,240,0.0,0.0,87,0.00,,,0.00,WeatherDisplay:10.37,2013-06-19 06:00:00,
2013-06-19 02:10:00,53.6,49.8,29.94,WSW,240,0.0,0.0,87,0.00,,,0.00,WeatherDisplay:10.37,2013-06-19 06:10:00,
2013-06-19 02:20:00,53.1,49.3,29.94,WSW,240,0.0,0.0,87,0.00,,,0.00,WeatherDisplay:10.37,2013-06-19 06:20:00,
2013-06-19 02:30:00,52.8,49.0,29.94,SW,223,0.0,0.0,87,0.00,,,0.00,WeatherDisplay:10.37,2013-06-19 06:30:00,
2013-06-19 02:40:00,52.5,48.8,29.94,SW,226,0.0,0.0,87,0.00,,,0.00,WeatherDisplay:10.37,2013-06-19 06:40:00,
2013-06-19 02:50:00,52.3,48.6,29.94,SW,234,0.0,0.0,87,0.00,,,0.00,WeatherDisplay:10.37,2013-06-19 06:50:00,
2013-06-19 03:00:00,52.3,48.6,29.94,WSW,239,0.0,0.0,87,0.00,,,0.00,WeatherDisplay:10.37,2013-06-19 07:00:00,
2013-06-19 03:10:00,52.3,48.6,29.94,WSW,247,3.0,0.0,87,0.00,,,0.00,WeatherDisplay:10.37,2013-06-19 07:10:00,
2013-06-19 03:20:00,52.3,48.6,29.93,WSW,238,2.0,0.0,87,0.00,,,0.00,WeatherDisplay:10.37,2013-06-19 07:20:00,
2013-06-19 03:30:00,52.3,48.6,29.94,SW,232,5.0,0.0,87,0.00,,,0.00,WeatherDisplay:10.37,2013-06-19 07:30:00,
2013-06-19 03:40:00,52.2,48.4,29.94,SW,230,2.0,0.0,87,0.00,,,0.00,WeatherDisplay:10.37,2013-06-19 07:40:00,
2013-06-19 03:50:00,52.2,48.4,29.94,SW,227,5.0,0.0,87,0.00,,,0.00,WeatherDisplay:10.37,2013-06-19 07:50:00,
2013-06-19 04:00:00,52.0,48.2,29.94,WSW,237,1.0,0.0,87,0.00,,,0.00,WeatherDisplay:10.37,2013-06-19 08:00:00,
2013-06-19 04:10:00,51.8,48.1,29.95,WSW,237,6.0,0.0,87,0.00,,,0.00,WeatherDisplay:10.37,2013-06-19 08:10:00,
2013-06-19 04:20:00,51.4,47.7,29.95,WSW,239,0.0,0.0,87,0.00,,,0.00,WeatherDisplay:10.37,2013-06-19 08:20:00,
2013-06-19 04:30:00,51.4,47.7,29.95,SW,231,2.0,0.0,87,0.00,,,0.00,WeatherDisplay:10.37,2013-06-19 08:30:00,
2013-06-19 04:40:00,51.3,47.2,29.95,SW,228,3.0,0.0,86,0.00,,,0.00,WeatherDisplay:10.37,2013-06-19 08:40:00,
2013-06-19 04:50:00,51.3,47.2,29.95,SW,223,2.0,0.0,86,0.00,,,0.00,WeatherDisplay:10.37,2013-06-19 08:50:00,
2013-06-19 05:00:00,51.3,47.2,29.95,West,259,0.0,0.0,86,0.00,,,0.00,WeatherDisplay:10.37,2013-06-19 09:00:00,
2013-06-19 05:10:00,50.9,46.9,29.97,WSW,252,0.0,0.0,86,0.00,,,0.00,WeatherDisplay:10.37,2013-06-19 09:10:00,
2013-06-19 05:20:00,50.9,46.9,29.97,West,262,0.0,0.0,86,0.00,,,0.00,WeatherDisplay:10.37,2013-06-19 09:20:00,
2013-06-19 05:30:00,50.7,46.7,29.96,West,262,0.0,0.0,86,0.00,,,0.00,WeatherDisplay:10.37,2013-06-19 09:30:00,
2013-06-19 05:40:00,50.7,46.7,29.97,West,262,0.0,0.0,86,0.00,,,0.00,WeatherDisplay:10.37,2013-06-19 09:40:00,
2013-06-19 05:50:00,50.5,46.8,29.97,West,262,0.0,0.0,87,0.00,,,0.00,WeatherDisplay:10.37,2013-06-19 09:50:00,
2013-06-19 06:00:00,50.7,47.0,29.97,West,259,0.0,0.0,87,0.00,,,0.00,WeatherDisplay:10.37,2013-06-19 10:00:00,
2013-06-19 06:10:00,50.7,47.0,29.97,WSW,240,0.0,0.0,87,0.00,,,0.00,WeatherDisplay:10.37,2013-06-19 10:10:00,
2013-06-19 06:20:00,50.8,47.1,29.97,WSW,247,1.0,0.0,87,0.00,,,0.00,WeatherDisplay:10.37,2013-06-19 10:20:00,
2013-06-19 06:30:00,50.9,47.2,29.97,WSW,245,0.0,0.0,87,0.00,,,0.00,WeatherDisplay:10.37,2013-06-19 10:30:00,
2013-06-19 06:40:00,51.4,47.7,29.99,SW,225,1.0,0.0,87,0.00,,,0.00,WeatherDisplay:10.37,2013-06-19 10:40:00,
2013-06-19 06:50:00,52.2,48.1,29.99,WSW,253,0.0,0.0,86,0.00,,,0.00,WeatherDisplay:10.37,2013-06-19 10:50:00,
2013-06-19 07:00:00,54.3,49.9,29.97,WSW,243,6.0,0.0,85,0.00,,,0.00,WeatherDisplay:10.37,2013-06-19 11:00:00,
2013-06-19 07:10:00,56.9,51.8,29.99,SW,228,0.0,0.0,83,0.00,,,0.00,WeatherDisplay:10.37,2013-06-19 11:10:00,
2013-06-19 07:20:00,59.0,52.5,29.99,WSW,249,1.0,0.0,79,0.00,,,0.00,WeatherDisplay:10.37,2013-06-19 11:20:00,
2013-06-19 07:30:00,60.6,53.4,29.99,WSW,242,2.0,0.0,77,0.00,,,0.00,WeatherDisplay:10.37,2013-06-19 11:30:00,
2013-06-19 07:40:00,61.3,53.0,29.99,SW,231,3.0,0.0,74,0.00,,,0.00,WeatherDisplay:10.37,2013-06-19 11:40:00,
2013-06-19 07:50:00,61.5,52.8,29.99,SW,223,0.0,0.0,73,0.00,,,0.00,WeatherDisplay:10.37,2013-06-19 11:50:00,
2013-06-19 08:00:00,61.3,52.2,30.00,SW,224,1.0,0.0,72,0.00,,,0.00,WeatherDisplay:10.37,2013-06-19 12:00:00,
2013-06-19 08:10:00,59.8,50.4,30.00,WSW,243,7.0,0.0,71,0.00,,,0.00,WeatherDisplay:10.37,2013-06-19 12:10:00,
2013-06-19 08:20:00,58.6,50.0,30.01,West,260,5.0,0.0,73,0.00,,,0.00,WeatherDisplay:10.37,2013-06-19 12:20:00,
2013-06-19 08:30:00,58.5,50.6,30.01,WSW,255,2.0,0.0,75,0.00,,,0.00,WeatherDisplay:10.37,2013-06-19 12:30:00,
2013-06-19 08:40:00,58.5,50.6,30.01,West,269,0.0,0.0,75,0.00,,,0.00,WeatherDisplay:10.37,2013-06-19 12:40:00,
2013-06-19 08:50:00,58.6,51.1,30.01,WSW,256,3.0,0.0,76,0.00,,,0.00,WeatherDisplay:10.37,2013-06-19 12:50:00,
2013-06-19 09:00:00,59.0,51.1,30.01,SW,233,0.0,0.0,75,0.00,,,0.00,WeatherDisplay:10.37,2013-06-19 13:00:00,
2013-06-19 09:10:00,59.4,51.8,30.01,West,260,1.0,0.0,76,0.00,,,0.00,WeatherDisplay:10.37,2013-06-19 13:10:00,
2013-06-19 09:20:00,59.7,51.8,30.02,SW,216,0.0,0.0,75,0.00,,,0.00,WeatherDisplay:10.37,2013-06-19 13:20:00,
2013-06-19 09:30:00,60.3,51.9,30.01,WSW,251,6.0,0.0,74,0.00,,,0.00,WeatherDisplay:10.37,2013-06-19 13:30:00,
2013-06-19 09:40:00,60.3,51.9,30.01,WSW,238,0.0,0.0,74,0.00,,,0.00,WeatherDisplay:10.37,2013-06-19 13:40:00,
2013-06-19 09:50:00,60.8,52.1,30.01,SW,217,1.0,0.0,73,0.00,,,0.00,WeatherDisplay:10.37,2013-06-19 13:50:00,
2013-06-19 10:00:00,61.2,52.8,30.02,NNW,343,0.0,0.0,74,0.00,,,0.00,WeatherDisplay:10.37,2013-06-19 14:00:00,
2013-06-19 10:10:00,61.4,51.5,30.02,SW,236,3.0,0.0,70,0.00,,,0.00,WeatherDisplay:10.37,2013-06-19 14:10:00,
2013-06-19 10:20:00,61.7,52.2,30.02,South,172,0.0,0.0,71,0.00,,,0.00,WeatherDisplay:10.37,2013-06-19 14:20:00,
2013-06-19 10:30:00,62.1,52.2,30.03,WSW,246,0.0,0.0,70,0.00,,,0.00,WeatherDisplay:10.37,2013-06-19 14:30:00,
2013-06-19 10:40:00,62.6,53.1,30.03,WNW,283,3.0,0.0,71,0.00,,,0.00,WeatherDisplay:10.37,2013-06-19 14:40:00,
2013-06-19 10:50:00,62.7,53.1,30.03,WNW,295,0.0,0.0,71,0.00,,,0.00,WeatherDisplay:10.37,2013-06-19 14:50:00,
2013-06-19 11:00:00,63.1,53.5,30.03,NW,306,0.0,0.0,71,0.00,,,0.00,WeatherDisplay:10.37,2013-06-19 15:00:00,
2013-06-19 11:10:00,63.3,52.1,30.04,West,266,2.0,0.0,67,0.00,,,0.00,WeatherDisplay:10.37,2013-06-19 15:10:00,
2013-06-19 11:20:00,63.5,51.5,30.03,West,264,7.0,0.0,65,0.00,,,0.00,WeatherDisplay:10.37,2013-06-19 15:20:00,
2013-06-19 11:30:00,63.5,52.3,30.04,NNE,18,1.0,0.0,67,0.00,,,0.00,WeatherDisplay:10.37,2013-06-19 15:30:00,
2013-06-19 11:40:00,64.7,53.8,30.04,South,177,0.0,0.0,68,0.00,,,0.00,WeatherDisplay:10.37,2013-06-19 15:40:00,
2013-06-19 11:50:00,64.8,51.9,30.04,SSW,210,0.0,0.0,63,0.00,,,0.00,WeatherDisplay:10.37,2013-06-19 15:50:00,
2013-06-19 12:00:00,64.4,52.0,30.04,WSW,248,1.0,0.0,64,0.00,,,0.00,WeatherDisplay:10.37,2013-06-19 16:00:00,
2013-06-19 12:10:00,64.6,53.4,30.03,ESE,112,0.0,0.0,67,0.00,,,0.00,WeatherDisplay:10.37,2013-06-19 16:10:00,
2013-06-19 12:20:00,65.1,54.3,30.03,NW,319,1.0,0.0,68,0.00,,,0.00,WeatherDisplay:10.37,2013-06-19 16:20:00,
2013-06-19 12:30:00,64.9,52.9,30.04,SSW,203,1.0,0.0,65,0.00,,,0.00,WeatherDisplay:10.37,2013-06-19 16:30:00,
2013-06-19 12:40:00,64.4,52.0,30.04,SSE,155,0.0,0.0,64,0.00,,,0.00,WeatherDisplay:10.37,2013-06-19 16:40:00,
2013-06-19 12:50:00,64.2,51.8,30.04,WSW,254,0.0,0.0,64,0.00,,,0.00,WeatherDisplay:10.37,2013-06-19 16:50:00,
2013-06-19 13:00:00,64.6,51.3,30.03,South,179,2.0,0.0,62,0.00,,,0.00,WeatherDisplay:10.37,2013-06-19 17:00:00,
2013-06-19 13:10:00,65.1,51.8,30.03,ESE,111,0.0,0.0,62,0.00,,,0.00,WeatherDisplay:10.37,2013-06-19 17:10:00,
2013-06-19 13:20:00,65.7,52.3,30.04,South,183,0.0,0.0,62,0.00,,,0.00,WeatherDisplay:10.37,2013-06-19 17:20:00,
2013-06-19 13:30:00,65.8,51.6,30.03,WSW,254,0.0,0.0,60,0.00,,,0.00,WeatherDisplay:10.37,2013-06-19 17:30:00,
2013-06-19 13:40:00,65.5,50.8,30.04,WSW,248,1.0,0.0,59,0.00,,,0.00,WeatherDisplay:10.37,2013-06-19 17:40:00,
2013-06-19 13:50:00,65.7,50.0,30.03,SE,139,2.0,0.0,57,0.00,,,0.00,WeatherDisplay:10.37,2013-06-19 17:50:00,
2013-06-19 14:00:00,65.9,50.2,30.03,SSE,165,2.0,0.0,57,0.00,,,0.00,WeatherDisplay:10.37,2013-06-19 18:00:00,
2013-06-19 14:10:00,66.2,49.1,30.04,South,179,5.0,0.0,54,0.00,,,0.00,WeatherDisplay:10.37,2013-06-19 18:10:00,
2013-06-19 14:20:00,65.8,49.7,30.03,WSW,237,0.0,0.0,56,0.00,,,0.00,WeatherDisplay:10.37,2013-06-19 18:20:00,
2013-06-19 14:30:00,66.0,49.9,30.04,SSE,148,3.0,0.0,56,0.00,,,0.00,WeatherDisplay:10.37,2013-06-19 18:30:00,
2013-06-19 14:40:00,66.3,50.1,30.04,SE,135,1.0,0.0,56,0.00,,,0.00,WeatherDisplay:10.37,2013-06-19 18:40:00,
2013-06-19 14:50:00,66.4,50.7,30.04,SE,129,0.0,0.0,57,0.00,,,0.00,WeatherDisplay:10.37,2013-06-19 18:50:00,
2013-06-19 15:10:00,66.7,50.0,30.04,ENE,77,0.0,0.0,55,0.00,,,0.00,WeatherDisplay:10.37,2013-06-19 19:10:00,
2013-06-19 15:20:00,67.1,50.4,30.04,SSE,163,1.0,0.0,55,0.00,,,0.00,WeatherDisplay:10.37,2013-06-19 19:20:00,
2013-06-19 15:30:00,67.5,49.7,30.04,WSW,241,0.0,0.0,53,0.00,,,0.00,WeatherDisplay:10.37,2013-06-19 19:30:00,
2013-06-19 15:40:00,67.5,50.8,30.05,West,261,0.0,0.0,55,0.00,,,0.00,WeatherDisplay:10.37,2013-06-19 19:40:00,
2013-06-19 15:50:00,67.5,50.2,30.05,WSW,238,0.0,0.0,54,0.00,,,0.00,WeatherDisplay:10.37,2013-06-19 19:50:00,
2013-06-19 16:00:00,67.6,51.4,30.05,SE,145,2.0,0.0,56,0.00,,,0.00,WeatherDisplay:10.37,2013-06-19 20:00:00,
2013-06-19 16:10:00,68.5,51.7,30.05,SE,125,5.0,0.0,55,0.00,,,0.00,WeatherDisplay:10.37,2013-06-19 20:10:00,
2013-06-19 16:20:00,69.3,51.4,30.06,SSE,168,0.0,0.0,53,0.00,,,0.00,WeatherDisplay:10.37,2013-06-19 20:20:00,
2013-06-19 16:30:00,70.0,51.1,30.06,SE,134,3.0,0.0,51,0.00,,,0.00,WeatherDisplay:10.37,2013-06-19 20:30:00,
2013-06-19 16:40:00,71.3,51.1,30.06,SE,142,0.0,0.0,49,0.00,,,0.00,WeatherDisplay:10.37,2013-06-19 20:40:00,
2013-06-19 16:50:00,74.6,54.2,30.06,SE,133,0.0,0.0,49,0.00,,,0.00,WeatherDisplay:10.37,2013-06-19 20:50:00,
2013-06-19 17:00:00,78.1,54.4,30.06,SE,142,0.0,0.0,44,0.00,,,0.00,WeatherDisplay:10.37,2013-06-19 21:00:00,
2013-06-19 17:10:00,79.7,55.3,30.06,SSE,155,0.0,0.0,43,0.00,,,0.00,WeatherDisplay:10.37,2013-06-19 21:10:00,
2013-06-19 17:20:00,82.9,55.4,30.05,SE,135,1.0,0.0,39,0.00,,,0.00,WeatherDisplay:10.37,2013-06-19 21:20:00,
2013-06-19 17:30:00,84.2,56.6,30.05,SE,128,1.0,0.0,39,0.00,,,0.00,WeatherDisplay:10.37,2013-06-19 21:30:00,
2013-06-19 17:40:00,84.7,55.6,30.06,SE,128,3.0,0.0,37,0.00,,,0.00,WeatherDisplay:10.37,2013-06-19 21:40:00,
2013-06-19 17:50:00,85.6,56.4,30.06,SE,131,0.0,0.0,37,0.00,,,0.00,WeatherDisplay:10.37,2013-06-19 21:50:00,
2013-06-19 18:00:00,85.6,55.6,30.06,SE,128,0.0,0.0,36,0.00,,,0.00,WeatherDisplay:10.37,2013-06-19 22:00:00,
2013-06-19 18:10:00,85.6,54.8,30.07,SE,130,0.0,0.0,35,0.00,,,0.00,WeatherDisplay:10.37,2013-06-19 22:10:00,
2013-06-19 18:20:00,84.7,54.8,30.07,SE,128,0.0,0.0,36,0.00,,,0.00,WeatherDisplay:10.37,2013-06-19 22:20:00,
2013-06-19 18:30:00,79.5,51.6,30.07,SE,128,0.0,0.0,38,0.00,,,0.00,WeatherDisplay:10.37,2013-06-19 22:30:00,
2013-06-19 18:40:00,74.1,50.2,30.07,SE,128,0.0,0.0,43,0.00,,,0.00,WeatherDisplay:10.37,2013-06-19 22:40:00,
2013-06-19 18:50:00,71.1,49.3,30.08,SE,139,0.0,0.0,46,0.00,,,0.00,WeatherDisplay:10.37,2013-06-19 22:50:00,
2013-06-19 19:00:00,69.3,48.7,30.07,SE,142,0.0,0.0,48,0.00,,,0.00,WeatherDisplay:10.37,2013-06-19 23:00:00,
2013-06-19 19:10:00,67.6,48.9,30.08,SE,128,0.0,0.0,51,0.00,,,0.00,WeatherDisplay:10.37,2013-06-19 23:10:00,
2013-06-19 19:20:00,65.8,48.7,30.08,SE,128,0.0,0.0,54,0.00,,,0.00,WeatherDisplay:10.37,2013-06-19 23:20:00,
2013-06-19 19:30:00,64.8,48.7,30.08,SSW,193,0.0,0.0,56,0.00,,,0.00,WeatherDisplay:10.37,2013-06-19 23:30:00,
2013-06-19 19:40:00,63.7,48.7,30.08,SSW,195,0.0,0.0,58,0.00,,,0.00,WeatherDisplay:10.37,2013-06-19 23:40:00,
2013-06-19 19:50:00,62.6,49.0,30.09,SSW,195,0.0,0.0,61,0.00,,,0.00,WeatherDisplay:10.37,2013-06-19 23:50:00,
2013-06-19 20:00:00,61.9,49.2,30.09,SSW,195,0.0,0.0,63,0.00,,,0.00,WeatherDisplay:10.37,2013-06-20 00:00:00,
2013-06-19 20:10:00,61.1,48.8,30.09,SSW,195,0.0,0.0,64,0.00,,,0.00,WeatherDisplay:10.37,2013-06-20 00:10:00,
2013-06-19 20:20:00,60.3,48.4,30.09,SSW,195,0.0,0.0,65,0.00,,,0.00,WeatherDisplay:10.37,2013-06-20 00:20:00,
2013-06-19 20:30:00,59.4,48.4,30.10,SSW,195,0.0,0.0,67,0.00,,,0.00,WeatherDisplay:10.37,2013-06-20 00:30:00,
2013-06-19 20:40:00,58.6,47.7,30.10,SSW,195,0.0,0.0,67,0.00,,,0.00,WeatherDisplay:10.37,2013-06-20 00:40:00,
2013-06-19 20:50:00,57.7,47.2,30.11,SSW,195,0.0,0.0,68,0.00,,,0.00,WeatherDisplay:10.37,2013-06-20 00:50:00,
2013-06-19 21:00:00,56.8,46.8,30.11,SSW,195,0.0,0.0,69,0.00,,,0.00,WeatherDisplay:10.37,2013-06-20 01:00:00,
2013-06-19 21:10:00,56.5,46.4,30.12,South,175,0.0,0.0,69,0.00,,,0.00,WeatherDisplay:10.37,2013-06-20 01:10:00,
2013-06-19 21:20:00,55.8,46.1,30.12,South,172,0.0,0.0,70,0.00,,,0.00,WeatherDisplay:10.37,2013-06-20 01:20:00,
2013-06-19 21:30:00,55.4,46.2,30.13,South,172,0.0,0.0,71,0.00,,,0.00,WeatherDisplay:10.37,2013-06-20 01:30:00,
2013-06-19 21:40:00,55.0,45.8,30.13,South,172,0.0,0.0,71,0.00,,,0.00,WeatherDisplay:10.37,2013-06-20 01:40:00,
2013-06-19 21:50:00,54.5,45.7,30.14,South,172,0.0,0.0,72,0.00,,,0.00,WeatherDisplay:10.37,2013-06-20 01:50:00,
2013-06-19 22:00:00,54.2,45.4,30.14,South,172,0.0,0.0,72,0.00,,,0.00,WeatherDisplay:10.37,2013-06-20 02:00:00,
2013-06-19 22:10:00,54.0,45.5,30.14,South,172,0.0,0.0,73,0.00,,,0.00,WeatherDisplay:10.37,2013-06-20 02:10:00,
2013-06-19 22:20:00,53.5,45.0,30.15,South,172,0.0,0.0,73,0.00,,,0.00,WeatherDisplay:10.37,2013-06-20 02:20:00,
2013-06-19 22:30:00,53.2,45.2,30.14,South,172,0.0,0.0,74,0.00,,,0.00,WeatherDisplay:10.37,2013-06-20 02:30:00,
2013-06-19 22:40:00,53.1,45.3,30.15,SSE,168,0.0,0.0,75,0.00,,,0.00,WeatherDisplay:10.37,2013-06-20 02:40:00,
2013-06-19 22:50:00,52.7,45.0,30.15,SSE,168,0.0,0.0,75,0.00,,,0.00,WeatherDisplay:10.37,2013-06-20 02:50:00,
2013-06-19 23:00:00,52.7,45.0,30.15,South,178,0.0,0.0,75,0.00,,,0.00,WeatherDisplay:10.37,2013-06-20 03:00:00,
2013-06-19 23:10:00,52.7,45.0,30.15,SSE,167,0.0,0.0,75,0.00,,,0.00,WeatherDisplay:10.37,2013-06-20 03:10:00,
2013-06-19 23:20:00,52.6,44.5,30.17,SSW,203,0.0,0.0,74,0.00,,,0.00,WeatherDisplay:10.37,2013-06-20 03:20:00,
2013-06-19 23:30:00,52.5,44.8,30.17,South,186,0.0,0.0,75,0.00,,,0.00,WeatherDisplay:10.37,2013-06-20 03:30:00,
2013-06-19 23:40:00,52.3,44.6,30.17,South,175,1.0,0.0,75,0.00,,,0.00,WeatherDisplay:10.37,2013-06-20 03:40:00,
2013-06-19 23:50:00,52.3,44.6,30.17,SW,234,0.0,0.0,75,0.00,,,0.00,WeatherDisplay:10.37,2013-06-20 03:50:00,